Oakland, CA (94661)

10:43 AM PDT on October 02, 2014 (GMT -0700)
Montclair- corner of Skyline and Snake | Change Station
CLOSE
Current Station
Personal Weather Station
Location: Oakland, CA
Elevation: 1250 ft
Nearby Weather Stations
Active Advisory: Heat Advisory

Elev 1250 ft 37.84 °N, 122.20 °W | Updated 2 seconds ago

Clear
Clear
73.3 °F
Feels Like 76 °F
N
2.5
Wind Variable Wind from SSW
Gusts 6.0 mph

Today
High -- | Low -- °F
--% Chance of Precip.
Yesterday
High -- | Low -- °F
Precip. -- in
7:05 AM 6:50 PM
First Quarter, 60% visible
Pressure 30.04 in
Visibility 10.0 miles
Clouds Clear
Heat Index 76 °F
Dew Point 39 °F
Humidity 30%
Rainfall 0.00 in
Snow Depth 1 in , 0 in , 0 in
UV 3 out of 12
Pollen 3.90 out of 12
Ozone Good
PM2.5 Moderate
Flu Activity Not available.
METAR KOAK 021653Z 19005KT 10SM CLR 21/11 A3004 RMK AO2 SLP171 T02060106

More Conditions Fewer Conditions

Pressure 30.04 in
Visibility 10.0 miles
Clouds Clear
Heat Index 76 °F
Dew Point 39 °F
Humidity 30%
Rainfall 0.00 in
Snow Depth 1 in , 0 in , 0 in
UV 3 out of 12
Pollen 3.90 out of 12
Ozone Good
PM2.5 Moderate
Flu Activity Not available.
METAR KOAK 021653Z 19005KT 10SM CLR 21/11 A3004 RMK AO2 SLP171 T02060106

More Conditions Fewer Conditions

10-Day Weather Forecast

Almanac

Astronomy

Oct. 02, 2014 Rise Set
Actual Time 7:05 AM PDT 6:50 PM PDT
Civil Twilight 6:39 AM PDT 7:16 PM PDT
Nautical Twilight 6:08 AM PDT 7:46 PM PDT
Astronomical Twilight 5:38 AM PDT 8:17 PM PDT
Moon 2:55 PM PDT 12:33 AM PDT
Length of Visible Light 12h 37m
Length of Day
11h 44m
Tomorrow will be 2m 24s shorter.
First Quarter, 60% of the Moon is Illuminated
Today
First Quarter
Oct 8
Full
Oct 15
Last Quarter
Oct 23
New
Oct 30
First Quarter

Today's Extremes

State Highs State Lows

Community

WunderPhotos

Upload Photos

1,758,312 photos uploaded!

Nearby

Air Quality

  Air Quality AQ Index Pollutant
Yesterday Good
PM2.5
Yesterday Good
OZONE
Current Moderate
PM2.5
Current Good
OZONE
Thursday Moderate
NO2
Friday Moderate
NO2
Saturday Moderate
PM2.5
Sunday Moderate
PM2.5
Monday Moderate
PM2.5

Snow Depth

Station Depth Elevation
Rubicon #2 1 in 7500 ft
Adin Mountain 0 in 6200 ft
Truckee #2 0 in 6400 ft
Sonora Pass 0 in 8800 ft
Leavitt Meadows 0 in 7200 ft

Earthquake Activity

City Distance Mag. Time & Date
South Dos Palos, California 112 miles 2.5 9:57 AM PDT
2014-10-02
South Dos Palos, California 111 miles 3.0 11:17 AM PDT
2014-10-01
East Foothills, California 34 miles 2.6 3:34 PM PDT
2014-09-30
South Dos Palos, California 111 miles 2.7 3:08 PM PDT
2014-09-30
Minimum magnitude displayed is 2.5.

Coastal Water Temperatures

Place Temperature
No Stations Reporting

Nearby Weather Stations